sensor_id;sensor_type;location;lat;lon;timestamp;P1;durP1;ratioP1;P2;durP2;ratioP2
13785;SDS011;47474;48.824;9.384;2023-03-31T00:01:47;4.27;;;1.43;;
13785;SDS011;47474;48.824;9.384;2023-03-31T00:04:16;2.10;;;1.57;;
13785;SDS011;47474;48.824;9.384;2023-03-31T00:06:43;4.87;;;1.50;;
13785;SDS011;47474;48.824;9.384;2023-03-31T00:09:10;4.47;;;1.30;;
13785;SDS011;47474;48.824;9.384;2023-03-31T00:11:41;2.73;;;1.47;;
13785;SDS011;47474;48.824;9.384;2023-03-31T00:14:07;2.53;;;1.17;;
13785;SDS011;47474;48.824;9.384;2023-03-31T00:16:34;2.90;;;1.30;;
13785;SDS011;47474;48.824;9.384;2023-03-31T00:19:02;2.33;;;1.80;;
13785;SDS011;47474;48.824;9.384;2023-03-31T00:21:29;3.73;;;1.33;;
13785;SDS011;47474;48.824;9.384;2023-03-31T00:23:59;2.67;;;1.50;;
13785;SDS011;47474;48.824;9.384;2023-03-31T00:26:26;2.00;;;1.20;;
13785;SDS011;47474;48.824;9.384;2023-03-31T00:28:55;4.20;;;1.70;;
13785;SDS011;47474;48.824;9.384;2023-03-31T00:31:22;2.23;;;1.40;;
13785;SDS011;47474;48.824;9.384;2023-03-31T00:33:48;2.70;;;2.00;;
13785;SDS011;47474;48.824;9.384;2023-03-31T00:36:15;3.30;;;1.43;;
13785;SDS011;47474;48.824;9.384;2023-03-31T00:38:45;3.23;;;1.53;;
13785;SDS011;47474;48.824;9.384;2023-03-31T00:41:12;3.73;;;1.70;;
13785;SDS011;47474;48.824;9.384;2023-03-31T00:43:39;3.03;;;1.50;;
13785;SDS011;47474;48.824;9.384;2023-03-31T00:46:09;2.20;;;1.33;;
13785;SDS011;47474;48.824;9.384;2023-03-31T00:48:39;2.57;;;1.53;;
13785;SDS011;47474;48.824;9.384;2023-03-31T00:51:10;5.80;;;1.73;;
13785;SDS011;47474;48.824;9.384;2023-03-31T00:53:36;6.00;;;1.70;;
13785;SDS011;47474;48.824;9.384;2023-03-31T00:56:04;2.90;;;1.67;;
13785;SDS011;47474;48.824;9.384;2023-03-31T00:58:33;3.67;;;1.63;;
13785;SDS011;47474;48.824;9.384;2023-03-31T01:01:08;3.57;;;1.50;;
13785;SDS011;47474;48.824;9.384;2023-03-31T01:03:38;3.77;;;1.60;;
13785;SDS011;47474;48.824;9.384;2023-03-31T01:06:06;2.27;;;1.70;;
13785;SDS011;47474;48.824;9.384;2023-03-31T01:08:34;2.57;;;1.63;;
13785;SDS011;47474;48.824;9.384;2023-03-31T01:11:03;2.53;;;1.43;;
13785;SDS011;47474;48.824;9.384;2023-03-31T01:13:31;5.53;;;2.17;;
13785;SDS011;47474;48.824;9.384;2023-03-31T01:16:00;3.90;;;1.70;;
13785;SDS011;47474;48.824;9.384;2023-03-31T01:18:28;4.57;;;1.80;;
13785;SDS011;47474;48.824;9.384;2023-03-31T01:24:03;5.50;;;2.00;;
13785;SDS011;47474;48.824;9.384;2023-03-31T01:26:48;5.00;;;1.33;;
13785;SDS011;47474;48.824;9.384;2023-03-31T01:29:30;2.57;;;1.73;;
13785;SDS011;47474;48.824;9.384;2023-03-31T01:38:35;4.27;;;1.60;;
13785;SDS011;47474;48.824;9.384;2023-03-31T01:41:34;3.80;;;1.87;;
13785;SDS011;47474;48.824;9.384;2023-03-31T01:44:06;4.00;;;1.57;;
13785;SDS011;47474;48.824;9.384;2023-03-31T01:46:35;5.53;;;2.10;;
13785;SDS011;47474;48.824;9.384;2023-03-31T01:49:07;4.47;;;2.17;;
13785;SDS011;47474;48.824;9.384;2023-03-31T01:51:43;2.87;;;1.60;;
13785;SDS011;47474;48.824;9.384;2023-03-31T01:54:14;2.60;;;1.67;;
13785;SDS011;47474;48.824;9.384;2023-03-31T01:56:46;2.67;;;1.70;;
13785;SDS011;47474;48.824;9.384;2023-03-31T01:59:15;4.37;;;1.70;;
13785;SDS011;47474;48.824;9.384;2023-03-31T02:01:46;5.47;;;1.67;;
13785;SDS011;47474;48.824;9.384;2023-03-31T02:04:16;3.33;;;1.70;;
13785;SDS011;47474;48.824;9.384;2023-03-31T02:06:47;3.97;;;1.83;;
13785;SDS011;47474;48.824;9.384;2023-03-31T02:09:21;2.20;;;1.67;;
13785;SDS011;47474;48.824;9.384;2023-03-31T02:11:50;7.40;;;2.20;;
13785;SDS011;47474;48.824;9.384;2023-03-31T02:14:19;7.13;;;2.00;;
13785;SDS011;47474;48.824;9.384;2023-03-31T02:16:47;2.40;;;1.80;;
13785;SDS011;47474;48.824;9.384;2023-03-31T02:19:16;3.20;;;1.93;;
13785;SDS011;47474;48.824;9.384;2023-03-31T02:21:45;5.20;;;1.70;;
13785;SDS011;47474;48.824;9.384;2023-03-31T02:24:13;3.60;;;2.07;;
13785;SDS011;47474;48.824;9.384;2023-03-31T02:26:41;4.40;;;1.80;;
13785;SDS011;47474;48.824;9.384;2023-03-31T02:29:12;4.77;;;1.83;;
13785;SDS011;47474;48.824;9.384;2023-03-31T02:31:40;6.13;;;1.70;;
13785;SDS011;47474;48.824;9.384;2023-03-31T02:34:11;2.30;;;1.80;;
13785;SDS011;47474;48.824;9.384;2023-03-31T02:36:38;4.13;;;1.70;;
13785;SDS011;47474;48.824;9.384;2023-03-31T02:39:07;3.20;;;2.63;;
13785;SDS011;47474;48.824;9.384;2023-03-31T02:41:35;4.30;;;1.67;;
13785;SDS011;47474;48.824;9.384;2023-03-31T02:44:01;3.63;;;1.63;;
13785;SDS011;47474;48.824;9.384;2023-03-31T02:46:29;3.03;;;1.80;;
13785;SDS011;47474;48.824;9.384;2023-03-31T02:48:57;2.23;;;1.53;;
13785;SDS011;47474;48.824;9.384;2023-03-31T02:51:44;3.57;;;1.83;;
13785;SDS011;47474;48.824;9.384;2023-03-31T02:54:30;6.37;;;1.73;;
13785;SDS011;47474;48.824;9.384;2023-03-31T02:57:23;3.20;;;1.53;;
13785;SDS011;47474;48.824;9.384;2023-03-31T03:00:02;3.87;;;1.97;;
13785;SDS011;47474;48.824;9.384;2023-03-31T03:02:36;3.23;;;1.97;;
13785;SDS011;47474;48.824;9.384;2023-03-31T03:05:12;4.80;;;1.80;;
13785;SDS011;47474;48.824;9.384;2023-03-31T03:07:45;4.50;;;1.77;;
13785;SDS011;47474;48.824;9.384;2023-03-31T03:10:15;3.47;;;1.37;;
13785;SDS011;47474;48.824;9.384;2023-03-31T03:12:47;3.83;;;2.53;;
13785;SDS011;47474;48.824;9.384;2023-03-31T03:15:17;2.83;;;1.83;;
13785;SDS011;47474;48.824;9.384;2023-03-31T03:17:48;4.17;;;1.87;;
13785;SDS011;47474;48.824;9.384;2023-03-31T03:20:15;6.70;;;1.93;;
13785;SDS011;47474;48.824;9.384;2023-03-31T03:22:45;3.33;;;1.93;;
13785;SDS011;47474;48.824;9.384;2023-03-31T03:25:12;3.73;;;1.80;;
13785;SDS011;47474;48.824;9.384;2023-03-31T03:27:41;2.63;;;1.50;;
13785;SDS011;47474;48.824;9.384;2023-03-31T03:30:08;2.43;;;1.63;;
13785;SDS011;47474;48.824;9.384;2023-03-31T03:32:36;5.23;;;1.63;;
13785;SDS011;47474;48.824;9.384;2023-03-31T03:35:05;4.13;;;1.90;;
13785;SDS011;47474;48.824;9.384;2023-03-31T03:37:32;3.27;;;1.60;;
13785;SDS011;47474;48.824;9.384;2023-03-31T03:39:59;3.50;;;1.57;;
13785;SDS011;47474;48.824;9.384;2023-03-31T03:42:25;3.63;;;1.90;;
13785;SDS011;47474;48.824;9.384;2023-03-31T03:44:52;1.93;;;1.70;;
13785;SDS011;47474;48.824;9.384;2023-03-31T03:47:19;2.47;;;1.80;;
13785;SDS011;47474;48.824;9.384;2023-03-31T03:49:45;4.43;;;2.10;;
13785;SDS011;47474;48.824;9.384;2023-03-31T03:52:14;3.27;;;1.80;;
13785;SDS011;47474;48.824;9.384;2023-03-31T03:54:41;3.50;;;1.90;;
13785;SDS011;47474;48.824;9.384;2023-03-31T03:57:07;3.20;;;1.63;;
13785;SDS011;47474;48.824;9.384;2023-03-31T03:59:34;2.83;;;1.87;;
13785;SDS011;47474;48.824;9.384;2023-03-31T04:02:00;2.27;;;1.70;;
13785;SDS011;47474;48.824;9.384;2023-03-31T04:04:27;2.67;;;1.80;;
13785;SDS011;47474;48.824;9.384;2023-03-31T04:06:53;2.47;;;1.80;;
13785;SDS011;47474;48.824;9.384;2023-03-31T04:09:21;2.33;;;1.90;;
13785;SDS011;47474;48.824;9.384;2023-03-31T04:11:48;3.40;;;2.23;;
13785;SDS011;47474;48.824;9.384;2023-03-31T04:14:14;2.67;;;2.10;;
13785;SDS011;47474;48.824;9.384;2023-03-31T04:16:41;3.07;;;2.00;;
13785;SDS011;47474;48.824;9.384;2023-03-31T04:19:10;2.67;;;1.70;;
13785;SDS011;47474;48.824;9.384;2023-03-31T04:21:41;3.80;;;2.20;;
13785;SDS011;47474;48.824;9.384;2023-03-31T04:24:09;7.57;;;2.73;;
13785;SDS011;47474;48.824;9.384;2023-03-31T04:26:41;3.80;;;2.23;;
13785;SDS011;47474;48.824;9.384;2023-03-31T04:29:07;3.13;;;2.20;;
13785;SDS011;47474;48.824;9.384;2023-03-31T04:31:34;4.70;;;2.37;;
13785;SDS011;47474;48.824;9.384;2023-03-31T04:34:06;3.57;;;2.60;;
13785;SDS011;47474;48.824;9.384;2023-03-31T04:36:37;3.90;;;2.40;;
13785;SDS011;47474;48.824;9.384;2023-03-31T04:39:06;5.40;;;2.60;;
13785;SDS011;47474;48.824;9.384;2023-03-31T04:41:35;2.63;;;1.90;;
13785;SDS011;47474;48.824;9.384;2023-03-31T04:44:03;4.17;;;2.30;;
13785;SDS011;47474;48.824;9.384;2023-03-31T04:46:30;2.87;;;2.27;;
13785;SDS011;47474;48.824;9.384;2023-03-31T04:48:57;5.87;;;2.40;;
13785;SDS011;47474;48.824;9.384;2023-03-31T04:51:25;5.17;;;2.20;;
13785;SDS011;47474;48.824;9.384;2023-03-31T04:53:52;4.77;;;2.37;;
13785;SDS011;47474;48.824;9.384;2023-03-31T04:56:18;4.07;;;2.40;;
13785;SDS011;47474;48.824;9.384;2023-03-31T04:58:46;3.43;;;2.23;;
13785;SDS011;47474;48.824;9.384;2023-03-31T05:01:14;4.17;;;2.07;;
13785;SDS011;47474;48.824;9.384;2023-03-31T05:03:42;3.23;;;2.50;;
13785;SDS011;47474;48.824;9.384;2023-03-31T05:06:09;6.63;;;2.00;;
13785;SDS011;47474;48.824;9.384;2023-03-31T05:08:35;4.23;;;2.43;;
13785;SDS011;47474;48.824;9.384;2023-03-31T05:11:02;3.70;;;2.90;;
13785;SDS011;47474;48.824;9.384;2023-03-31T05:13:28;4.33;;;3.20;;
13785;SDS011;47474;48.824;9.384;2023-03-31T05:15:55;5.63;;;2.63;;
13785;SDS011;47474;48.824;9.384;2023-03-31T05:18:23;4.57;;;2.53;;
13785;SDS011;47474;48.824;9.384;2023-03-31T05:20:50;5.23;;;2.33;;
13785;SDS011;47474;48.824;9.384;2023-03-31T05:23:16;3.90;;;2.50;;
13785;SDS011;47474;48.824;9.384;2023-03-31T05:25:43;4.90;;;2.50;;
13785;SDS011;47474;48.824;9.384;2023-03-31T05:28:09;5.77;;;2.90;;
13785;SDS011;47474;48.824;9.384;2023-03-31T05:30:36;7.20;;;2.70;;
13785;SDS011;47474;48.824;9.384;2023-03-31T05:33:02;3.87;;;2.53;;
13785;SDS011;47474;48.824;9.384;2023-03-31T05:35:30;5.33;;;3.07;;
13785;SDS011;47474;48.824;9.384;2023-03-31T05:37:57;2.80;;;2.50;;
13785;SDS011;47474;48.824;9.384;2023-03-31T05:40:23;5.03;;;3.07;;
13785;SDS011;47474;48.824;9.384;2023-03-31T05:42:50;4.17;;;2.97;;
13785;SDS011;47474;48.824;9.384;2023-03-31T05:45:17;6.23;;;3.03;;
13785;SDS011;47474;48.824;9.384;2023-03-31T05:47:43;3.40;;;3.03;;
13785;SDS011;47474;48.824;9.384;2023-03-31T05:50:10;4.87;;;3.20;;
13785;SDS011;47474;48.824;9.384;2023-03-31T05:52:38;6.37;;;3.63;;
13785;SDS011;47474;48.824;9.384;2023-03-31T05:55:05;3.83;;;3.50;;
13785;SDS011;47474;48.824;9.384;2023-03-31T05:57:32;5.73;;;3.17;;
13785;SDS011;47474;48.824;9.384;2023-03-31T05:59:58;7.00;;;3.50;;
13785;SDS011;47474;48.824;9.384;2023-03-31T06:02:25;5.57;;;3.33;;
13785;SDS011;47474;48.824;9.384;2023-03-31T06:04:51;8.87;;;3.20;;
13785;SDS011;47474;48.824;9.384;2023-03-31T06:07:18;3.90;;;3.43;;
13785;SDS011;47474;48.824;9.384;2023-03-31T06:09:47;4.10;;;3.10;;
13785;SDS011;47474;48.824;9.384;2023-03-31T06:12:14;5.33;;;3.83;;
13785;SDS011;47474;48.824;9.384;2023-03-31T06:14:41;3.53;;;3.10;;
13785;SDS011;47474;48.824;9.384;2023-03-31T06:17:07;5.97;;;3.60;;
13785;SDS011;47474;48.824;9.384;2023-03-31T06:19:34;3.83;;;3.20;;
13785;SDS011;47474;48.824;9.384;2023-03-31T06:22:01;4.67;;;3.13;;
13785;SDS011;47474;48.824;9.384;2023-03-31T06:24:27;5.50;;;3.10;;
13785;SDS011;47474;48.824;9.384;2023-03-31T06:26:55;5.70;;;3.50;;
13785;SDS011;47474;48.824;9.384;2023-03-31T06:29:22;5.27;;;3.47;;
13785;SDS011;47474;48.824;9.384;2023-03-31T06:31:49;4.10;;;3.40;;
13785;SDS011;47474;48.824;9.384;2023-03-31T06:34:15;4.73;;;3.33;;
13785;SDS011;47474;48.824;9.384;2023-03-31T06:36:42;4.70;;;3.70;;
13785;SDS011;47474;48.824;9.384;2023-03-31T06:39:09;6.37;;;3.77;;
13785;SDS011;47474;48.824;9.384;2023-03-31T06:41:35;5.20;;;3.87;;
13785;SDS011;47474;48.824;9.384;2023-03-31T06:44:04;5.87;;;3.37;;
13785;SDS011;47474;48.824;9.384;2023-03-31T06:46:30;7.17;;;3.60;;
13785;SDS011;47474;48.824;9.384;2023-03-31T06:48:57;5.00;;;4.10;;
13785;SDS011;47474;48.824;9.384;2023-03-31T06:51:24;5.63;;;3.97;;
13785;SDS011;47474;48.824;9.384;2023-03-31T06:53:50;5.07;;;3.50;;
13785;SDS011;47474;48.824;9.384;2023-03-31T06:56:17;7.37;;;4.20;;
13785;SDS011;47474;48.824;9.384;2023-03-31T06:58:43;6.50;;;3.93;;
13785;SDS011;47474;48.824;9.384;2023-03-31T07:01:11;6.47;;;4.40;;
13785;SDS011;47474;48.824;9.384;2023-03-31T07:03:38;7.93;;;4.10;;
13785;SDS011;47474;48.824;9.384;2023-03-31T07:06:04;7.60;;;4.20;;
13785;SDS011;47474;48.824;9.384;2023-03-31T07:08:31;7.83;;;4.30;;
13785;SDS011;47474;48.824;9.384;2023-03-31T07:10:58;5.67;;;4.70;;
13785;SDS011;47474;48.824;9.384;2023-03-31T07:13:26;5.13;;;4.57;;
13785;SDS011;47474;48.824;9.384;2023-03-31T07:15:53;5.80;;;4.40;;
13785;SDS011;47474;48.824;9.384;2023-03-31T07:18:21;5.53;;;4.70;;
13785;SDS011;47474;48.824;9.384;2023-03-31T07:20:50;4.93;;;4.40;;
13785;SDS011;47474;48.824;9.384;2023-03-31T07:23:16;5.00;;;4.00;;
13785;SDS011;47474;48.824;9.384;2023-03-31T07:25:43;5.07;;;4.23;;
13785;SDS011;47474;48.824;9.384;2023-03-31T07:28:10;5.10;;;4.10;;
13785;SDS011;47474;48.824;9.384;2023-03-31T07:30:37;5.87;;;5.10;;
13785;SDS011;47474;48.824;9.384;2023-03-31T07:33:05;6.17;;;3.70;;
13785;SDS011;47474;48.824;9.384;2023-03-31T07:35:33;6.53;;;3.93;;
13785;SDS011;47474;48.824;9.384;2023-03-31T07:38:03;5.27;;;3.30;;
13785;SDS011;47474;48.824;9.384;2023-03-31T07:40:30;4.40;;;3.00;;
13785;SDS011;47474;48.824;9.384;2023-03-31T07:42:56;4.13;;;3.20;;
13785;SDS011;47474;48.824;9.384;2023-03-31T07:45:24;3.73;;;3.00;;
13785;SDS011;47474;48.824;9.384;2023-03-31T07:47:51;3.33;;;3.03;;
13785;SDS011;47474;48.824;9.384;2023-03-31T07:50:18;4.30;;;3.43;;
13785;SDS011;47474;48.824;9.384;2023-03-31T07:52:47;5.43;;;3.43;;
13785;SDS011;47474;48.824;9.384;2023-03-31T07:55:13;5.50;;;2.70;;
13785;SDS011;47474;48.824;9.384;2023-03-31T07:57:40;4.13;;;2.50;;
13785;SDS011;47474;48.824;9.384;2023-03-31T08:00:07;4.43;;;2.97;;
13785;SDS011;47474;48.824;9.384;2023-03-31T08:02:36;4.83;;;3.57;;
13785;SDS011;47474;48.824;9.384;2023-03-31T08:05:03;5.73;;;3.17;;
13785;SDS011;47474;48.824;9.384;2023-03-31T08:07:32;3.53;;;3.03;;
13785;SDS011;47474;48.824;9.384;2023-03-31T08:10:01;2.77;;;2.57;;
13785;SDS011;47474;48.824;9.384;2023-03-31T08:12:29;5.80;;;2.93;;
13785;SDS011;47474;48.824;9.384;2023-03-31T08:14:55;3.97;;;2.07;;
13785;SDS011;47474;48.824;9.384;2023-03-31T08:17:22;3.27;;;2.10;;
13785;SDS011;47474;48.824;9.384;2023-03-31T08:19:48;2.70;;;2.10;;
13785;SDS011;47474;48.824;9.384;2023-03-31T08:22:16;2.20;;;1.40;;
13785;SDS011;47474;48.824;9.384;2023-03-31T08:24:42;2.60;;;1.70;;
13785;SDS011;47474;48.824;9.384;2023-03-31T08:27:10;2.27;;;1.60;;
13785;SDS011;47474;48.824;9.384;2023-03-31T08:29:37;3.60;;;1.90;;
13785;SDS011;47474;48.824;9.384;2023-03-31T08:32:06;2.60;;;1.73;;
13785;SDS011;47474;48.824;9.384;2023-03-31T08:34:32;1.77;;;1.50;;
13785;SDS011;47474;48.824;9.384;2023-03-31T08:37:00;1.67;;;1.57;;
13785;SDS011;47474;48.824;9.384;2023-03-31T08:39:27;1.77;;;1.47;;
13785;SDS011;47474;48.824;9.384;2023-03-31T08:41:54;2.07;;;1.30;;
13785;SDS011;47474;48.824;9.384;2023-03-31T08:44:28;2.07;;;1.37;;
13785;SDS011;47474;48.824;9.384;2023-03-31T08:46:56;1.97;;;1.07;;
13785;SDS011;47474;48.824;9.384;2023-03-31T08:49:24;1.93;;;1.70;;
13785;SDS011;47474;48.824;9.384;2023-03-31T08:51:53;1.60;;;1.17;;
13785;SDS011;47474;48.824;9.384;2023-03-31T08:54:29;1.60;;;1.20;;
13785;SDS011;47474;48.824;9.384;2023-03-31T08:56:57;1.30;;;1.20;;
13785;SDS011;47474;48.824;9.384;2023-03-31T08:59:27;2.47;;;1.30;;
13785;SDS011;47474;48.824;9.384;2023-03-31T09:01:56;2.53;;;2.10;;
13785;SDS011;47474;48.824;9.384;2023-03-31T09:07:33;1.63;;;1.23;;
13785;SDS011;47474;48.824;9.384;2023-03-31T09:10:09;4.40;;;1.80;;
13785;SDS011;47474;48.824;9.384;2023-03-31T09:12:47;2.17;;;1.50;;
13785;SDS011;47474;48.824;9.384;2023-03-31T09:15:21;3.20;;;1.40;;
13785;SDS011;47474;48.824;9.384;2023-03-31T09:17:51;3.50;;;1.57;;
13785;SDS011;47474;48.824;9.384;2023-03-31T09:20:20;3.17;;;1.70;;
13785;SDS011;47474;48.824;9.384;2023-03-31T09:22:49;1.67;;;1.23;;
13785;SDS011;47474;48.824;9.384;2023-03-31T09:25:18;2.40;;;1.33;;
13785;SDS011;47474;48.824;9.384;2023-03-31T09:27:46;2.83;;;1.37;;
13785;SDS011;47474;48.824;9.384;2023-03-31T09:30:13;1.13;;;1.03;;
13785;SDS011;47474;48.824;9.384;2023-03-31T09:32:44;2.03;;;1.57;;
13785;SDS011;47474;48.824;9.384;2023-03-31T09:35:15;3.80;;;1.83;;
13785;SDS011;47474;48.824;9.384;2023-03-31T09:37:45;3.20;;;1.23;;
13785;SDS011;47474;48.824;9.384;2023-03-31T09:40:14;1.87;;;1.10;;
13785;SDS011;47474;48.824;9.384;2023-03-31T09:42:43;5.10;;;1.37;;
13785;SDS011;47474;48.824;9.384;2023-03-31T09:45:12;3.83;;;1.30;;
13785;SDS011;47474;48.824;9.384;2023-03-31T09:47:41;3.20;;;1.20;;
13785;SDS011;47474;48.824;9.384;2023-03-31T09:50:10;3.73;;;1.40;;
13785;SDS011;47474;48.824;9.384;2023-03-31T09:52:38;4.87;;;1.20;;
13785;SDS011;47474;48.824;9.384;2023-03-31T09:55:09;1.33;;;0.87;;
13785;SDS011;47474;48.824;9.384;2023-03-31T09:57:43;1.33;;;0.90;;
13785;SDS011;47474;48.824;9.384;2023-03-31T10:00:13;2.27;;;1.23;;
13785;SDS011;47474;48.824;9.384;2023-03-31T10:02:41;1.27;;;1.10;;
13785;SDS011;47474;48.824;9.384;2023-03-31T10:05:19;3.30;;;1.40;;
13785;SDS011;47474;48.824;9.384;2023-03-31T10:07:49;2.30;;;1.33;;
13785;SDS011;47474;48.824;9.384;2023-03-31T10:10:20;4.83;;;1.27;;
13785;SDS011;47474;48.824;9.384;2023-03-31T10:12:51;2.75;;;1.70;;
13785;SDS011;47474;48.824;9.384;2023-03-31T10:15:18;3.43;;;1.47;;
13785;SDS011;47474;48.824;9.384;2023-03-31T10:17:47;4.97;;;2.10;;
13785;SDS011;47474;48.824;9.384;2023-03-31T10:20:22;2.53;;;1.40;;
13785;SDS011;47474;48.824;9.384;2023-03-31T10:22:58;3.27;;;1.67;;
13785;SDS011;47474;48.824;9.384;2023-03-31T10:25:28;1.90;;;1.30;;
13785;SDS011;47474;48.824;9.384;2023-03-31T10:27:55;2.63;;;1.50;;
13785;SDS011;47474;48.824;9.384;2023-03-31T10:30:22;2.23;;;1.50;;
13785;SDS011;47474;48.824;9.384;2023-03-31T10:32:50;2.83;;;1.30;;
13785;SDS011;47474;48.824;9.384;2023-03-31T10:35:22;2.55;;;1.23;;
13785;SDS011;47474;48.824;9.384;2023-03-31T10:37:50;5.15;;;1.52;;
13785;SDS011;47474;48.824;9.384;2023-03-31T10:40:20;3.28;;;1.58;;
13785;SDS011;47474;48.824;9.384;2023-03-31T10:42:56;4.97;;;1.58;;
13785;SDS011;47474;48.824;9.384;2023-03-31T10:45:25;6.35;;;1.58;;
13785;SDS011;47474;48.824;9.384;2023-03-31T10:47:53;5.03;;;1.50;;
13785;SDS011;47474;48.824;9.384;2023-03-31T10:50:26;2.83;;;1.23;;
13785;SDS011;47474;48.824;9.384;2023-03-31T10:52:59;4.55;;;1.65;;
13785;SDS011;47474;48.824;9.384;2023-03-31T10:55:29;4.72;;;1.10;;
13785;SDS011;47474;48.824;9.384;2023-03-31T10:58:00;3.30;;;1.55;;
13785;SDS011;47474;48.824;9.384;2023-03-31T11:00:31;5.80;;;1.50;;
13785;SDS011;47474;48.824;9.384;2023-03-31T11:03:05;4.30;;;1.58;;
13785;SDS011;47474;48.824;9.384;2023-03-31T11:05:55;5.13;;;1.50;;
13785;SDS011;47474;48.824;9.384;2023-03-31T11:08:31;3.53;;;1.30;;
13785;SDS011;47474;48.824;9.384;2023-03-31T11:11:07;3.00;;;1.40;;
13785;SDS011;47474;48.824;9.384;2023-03-31T11:13:40;4.05;;;1.42;;
13785;SDS011;47474;48.824;9.384;2023-03-31T11:16:13;3.10;;;1.10;;
13785;SDS011;47474;48.824;9.384;2023-03-31T11:21:35;3.78;;;1.40;;
13785;SDS011;47474;48.824;9.384;2023-03-31T11:24:09;2.90;;;1.35;;
13785;SDS011;47474;48.824;9.384;2023-03-31T11:26:45;4.13;;;1.50;;
13785;SDS011;47474;48.824;9.384;2023-03-31T11:29:19;2.88;;;1.20;;
13785;SDS011;47474;48.824;9.384;2023-03-31T11:31:56;5.95;;;1.45;;
13785;SDS011;47474;48.824;9.384;2023-03-31T11:37:21;2.07;;;1.00;;
13785;SDS011;47474;48.824;9.384;2023-03-31T11:40:05;3.10;;;2.73;;
13785;SDS011;47474;48.824;9.384;2023-03-31T11:42:41;1.33;;;0.83;;
13785;SDS011;47474;48.824;9.384;2023-03-31T11:45:12;3.97;;;0.77;;
13785;SDS011;47474;48.824;9.384;2023-03-31T11:47:41;0.77;;;0.77;;
13785;SDS011;47474;48.824;9.384;2023-03-31T11:50:10;0.70;;;0.70;;
13785;SDS011;47474;48.824;9.384;2023-03-31T11:52:40;3.37;;;0.70;;
13785;SDS011;47474;48.824;9.384;2023-03-31T11:55:11;0.80;;;0.80;;
13785;SDS011;47474;48.824;9.384;2023-03-31T11:57:41;0.67;;;0.57;;
13785;SDS011;47474;48.824;9.384;2023-03-31T12:00:10;1.00;;;0.60;;
13785;SDS011;47474;48.824;9.384;2023-03-31T12:02:43;0.47;;;0.47;;
13785;SDS011;47474;48.824;9.384;2023-03-31T12:05:11;1.03;;;0.60;;
13785;SDS011;47474;48.824;9.384;2023-03-31T12:07:42;1.40;;;0.70;;
13785;SDS011;47474;48.824;9.384;2023-03-31T12:10:12;0.73;;;0.50;;
13785;SDS011;47474;48.824;9.384;2023-03-31T12:12:43;2.00;;;0.97;;
13785;SDS011;47474;48.824;9.384;2023-03-31T12:15:13;3.03;;;0.80;;
13785;SDS011;47474;48.824;9.384;2023-03-31T12:17:44;1.70;;;0.60;;
13785;SDS011;47474;48.824;9.384;2023-03-31T12:20:24;0.73;;;0.73;;
13785;SDS011;47474;48.824;9.384;2023-03-31T12:22:55;1.13;;;0.90;;
13785;SDS011;47474;48.824;9.384;2023-03-31T12:25:24;0.80;;;0.80;;
13785;SDS011;47474;48.824;9.384;2023-03-31T12:27:51;1.17;;;0.90;;
13785;SDS011;47474;48.824;9.384;2023-03-31T12:30:19;0.87;;;0.80;;
13785;SDS011;47474;48.824;9.384;2023-03-31T12:32:51;0.83;;;0.80;;
13785;SDS011;47474;48.824;9.384;2023-03-31T12:35:20;1.40;;;0.70;;
13785;SDS011;47474;48.824;9.384;2023-03-31T12:40:57;1.97;;;0.63;;
13785;SDS011;47474;48.824;9.384;2023-03-31T12:46:49;2.57;;;0.90;;
13785;SDS011;47474;48.824;9.384;2023-03-31T12:49:31;1.60;;;0.80;;
13785;SDS011;47474;48.824;9.384;2023-03-31T12:52:05;1.07;;;0.63;;
13785;SDS011;47474;48.824;9.384;2023-03-31T12:54:45;3.50;;;0.90;;
13785;SDS011;47474;48.824;9.384;2023-03-31T12:57:23;1.23;;;0.50;;
13785;SDS011;47474;48.824;9.384;2023-03-31T13:00:08;0.80;;;0.50;;
13785;SDS011;47474;48.824;9.384;2023-03-31T13:02:43;0.77;;;0.43;;
13785;SDS011;47474;48.824;9.384;2023-03-31T13:11:22;2.30;;;0.90;;
13785;SDS011;47474;48.824;9.384;2023-03-31T13:14:01;1.10;;;0.97;;
13785;SDS011;47474;48.824;9.384;2023-03-31T13:16:29;2.47;;;0.90;;
13785;SDS011;47474;48.824;9.384;2023-03-31T13:18:56;3.17;;;1.10;;
13785;SDS011;47474;48.824;9.384;2023-03-31T13:21:23;1.07;;;0.63;;
13785;SDS011;47474;48.824;9.384;2023-03-31T13:23:50;2.33;;;1.03;;
13785;SDS011;47474;48.824;9.384;2023-03-31T13:26:38;4.83;;;1.17;;
13785;SDS011;47474;48.824;9.384;2023-03-31T13:29:10;2.50;;;0.90;;
13785;SDS011;47474;48.824;9.384;2023-03-31T13:34:48;1.83;;;0.63;;
13785;SDS011;47474;48.824;9.384;2023-03-31T13:37:18;1.10;;;0.67;;
13785;SDS011;47474;48.824;9.384;2023-03-31T13:42:50;1.60;;;0.67;;
13785;SDS011;47474;48.824;9.384;2023-03-31T13:45:32;1.47;;;0.77;;
13785;SDS011;47474;48.824;9.384;2023-03-31T13:48:17;0.67;;;0.60;;
13785;SDS011;47474;48.824;9.384;2023-03-31T13:50:56;1.27;;;0.50;;
13785;SDS011;47474;48.824;9.384;2023-03-31T13:53:35;0.40;;;0.40;;
13785;SDS011;47474;48.824;9.384;2023-03-31T13:56:21;1.23;;;0.67;;
13785;SDS011;47474;48.824;9.384;2023-03-31T13:59:02;1.93;;;0.40;;
13785;SDS011;47474;48.824;9.384;2023-03-31T14:01:40;0.50;;;0.50;;
13785;SDS011;47474;48.824;9.384;2023-03-31T14:04:26;0.90;;;0.43;;
13785;SDS011;47474;48.824;9.384;2023-03-31T14:07:04;0.97;;;0.63;;
13785;SDS011;47474;48.824;9.384;2023-03-31T14:09:33;3.10;;;0.80;;
13785;SDS011;47474;48.824;9.384;2023-03-31T14:12:17;1.87;;;0.80;;
13785;SDS011;47474;48.824;9.384;2023-03-31T14:14:47;0.90;;;0.80;;
13785;SDS011;47474;48.824;9.384;2023-03-31T14:17:18;1.63;;;0.60;;
13785;SDS011;47474;48.824;9.384;2023-03-31T14:19:53;0.67;;;0.60;;
13785;SDS011;47474;48.824;9.384;2023-03-31T14:22:29;1.50;;;0.53;;
13785;SDS011;47474;48.824;9.384;2023-03-31T14:25:01;1.23;;;0.40;;
13785;SDS011;47474;48.824;9.384;2023-03-31T14:27:38;0.50;;;0.50;;
13785;SDS011;47474;48.824;9.384;2023-03-31T14:30:12;0.50;;;0.50;;
13785;SDS011;47474;48.824;9.384;2023-03-31T14:32:45;0.70;;;0.70;;
13785;SDS011;47474;48.824;9.384;2023-03-31T14:35:21;1.40;;;0.80;;
13785;SDS011;47474;48.824;9.384;2023-03-31T14:37:52;1.30;;;0.70;;
13785;SDS011;47474;48.824;9.384;2023-03-31T14:40:20;1.00;;;0.70;;
13785;SDS011;47474;48.824;9.384;2023-03-31T14:42:46;1.57;;;0.80;;
13785;SDS011;47474;48.824;9.384;2023-03-31T14:45:17;1.93;;;0.60;;
13785;SDS011;47474;48.824;9.384;2023-03-31T14:47:52;0.40;;;0.40;;
13785;SDS011;47474;48.824;9.384;2023-03-31T14:50:20;0.60;;;0.50;;
13785;SDS011;47474;48.824;9.384;2023-03-31T14:52:47;2.03;;;0.70;;
13785;SDS011;47474;48.824;9.384;2023-03-31T14:55:15;0.70;;;0.60;;
13785;SDS011;47474;48.824;9.384;2023-03-31T14:57:42;1.67;;;0.50;;
13785;SDS011;47474;48.824;9.384;2023-03-31T15:00:11;2.00;;;0.60;;
13785;SDS011;47474;48.824;9.384;2023-03-31T15:02:42;0.93;;;0.30;;
13785;SDS011;47474;48.824;9.384;2023-03-31T15:05:14;1.33;;;0.63;;
13785;SDS011;47474;48.824;9.384;2023-03-31T15:07:47;1.43;;;0.63;;
13785;SDS011;47474;48.824;9.384;2023-03-31T15:10:15;0.80;;;0.60;;
13785;SDS011;47474;48.824;9.384;2023-03-31T15:12:44;1.27;;;0.67;;
13785;SDS011;47474;48.824;9.384;2023-03-31T15:15:11;1.30;;;0.70;;
13785;SDS011;47474;48.824;9.384;2023-03-31T15:17:39;0.83;;;0.70;;
13785;SDS011;47474;48.824;9.384;2023-03-31T15:23:03;2.13;;;0.60;;
13785;SDS011;47474;48.824;9.384;2023-03-31T15:25:32;1.50;;;0.73;;
13785;SDS011;47474;48.824;9.384;2023-03-31T15:28:02;2.87;;;0.80;;
13785;SDS011;47474;48.824;9.384;2023-03-31T15:30:30;0.80;;;0.80;;
13785;SDS011;47474;48.824;9.384;2023-03-31T15:32:57;0.73;;;0.70;;
13785;SDS011;47474;48.824;9.384;2023-03-31T15:35:26;1.53;;;0.70;;
13785;SDS011;47474;48.824;9.384;2023-03-31T15:37:57;2.10;;;0.97;;
13785;SDS011;47474;48.824;9.384;2023-03-31T15:40:25;0.80;;;0.70;;
13785;SDS011;47474;48.824;9.384;2023-03-31T15:42:53;2.00;;;1.00;;
13785;SDS011;47474;48.824;9.384;2023-03-31T15:45:37;1.70;;;0.90;;